SBVT/VIX METAR and TAF weather

Enter ICAO airport designator
Station Type Date Time Source
SBVT METAR 2019/02/16 17:00 UTC NOAA

SBVT 161700Z 36006KT 9999 FEW030 34/24 Q1007


Station Type Date Time Source
SBVT Decoded METAR 2019/02/16 17:00 UTC NOAA

Vitoria Aeroporto , Brazil (SBVT) 20-16S 040-17W 4M
Feb 16, 2019 - 12:00 PM EST / 2019.02.16 1700 UTC
Wind: from the N (360 degrees) at 7 MPH (6 KT):0
Visibility: greater than 7 mile(s):0
Sky conditions: mostly clear
Temperature: 93 F (34 C)
Heat index: 104.5 F (40.3 C):1
Dew Point: 75 F (24 C)
Relative Humidity: 56%
Pressure (altimeter): 29.74 in. Hg (1007 hPa)
ob: SBVT 161700Z 36006KT 9999 FEW030 34/24 Q1007
cycle: 17

Station Type Date Time Source
SBVT TAF 2019/02/16 12:57 UTC NOAA

TAF SBVT 161000Z 1612/1712 12005KT 9999 SCT025 TX30/1616Z TN23/1708Z
RMK PEA


Example: see airport list